createdAt,value
2023-04-16T00:01:10.367Z,26.85
2023-04-16T00:03:37.462Z,27.17
2023-04-16T00:06:04.790Z,26.86
2023-04-16T00:08:31.772Z,27.05
2023-04-16T00:10:58.664Z,27.27
2023-04-16T00:13:27.581Z,26.99
2023-04-16T00:15:54.578Z,26.96
2023-04-16T00:18:21.571Z,27.39
2023-04-16T00:20:49.398Z,27.16
2023-04-16T00:23:17.203Z,27.30
2023-04-16T00:25:44.172Z,27.15
2023-04-16T00:28:11.220Z,27.64
2023-04-16T00:30:38.458Z,27.73
2023-04-16T00:33:05.585Z,27.86
2023-04-16T00:35:32.687Z,27.70
2023-04-16T00:37:59.774Z,28.02
2023-04-16T00:40:30.198Z,28.01
2023-04-16T00:42:57.236Z,28.09
2023-04-16T00:45:24.294Z,27.99
2023-04-16T00:47:51.878Z,28.15
2023-04-16T00:50:19.120Z,28.29
2023-04-16T00:52:48.115Z,28.28
2023-04-16T00:55:17.759Z,28.46
2023-04-16T00:57:46.022Z,28.70
2023-04-16T01:00:13.598Z,28.59
2023-04-16T01:02:40.751Z,28.95
2023-04-16T01:05:08.355Z,29.19
2023-04-16T01:07:35.372Z,29.36
2023-04-16T01:10:03.400Z,28.93
2023-04-16T01:12:32.700Z,29.36
2023-04-16T01:14:59.888Z,29.43
2023-04-16T01:17:26.951Z,29.71
2023-04-16T01:19:54.037Z,29.72
2023-04-16T01:22:21.001Z,29.97
2023-04-16T01:24:48.256Z,30.17
2023-04-16T01:27:15.829Z,30.23
2023-04-16T01:29:43.020Z,29.96
2023-04-16T01:32:10.651Z,30.39
2023-04-16T01:34:40.817Z,30.09
2023-04-16T01:37:10.271Z,30.59
2023-04-16T01:39:37.217Z,30.76
2023-04-16T01:42:04.261Z,31.09
2023-04-16T01:44:31.326Z,31.20
2023-04-16T01:46:58.445Z,30.92
2023-04-16T01:49:25.756Z,30.94
2023-04-16T01:51:53.063Z,31.12
2023-04-16T01:54:20.073Z,31.36
2023-04-16T01:56:47.027Z,31.37
2023-04-16T01:59:14.019Z,31.27
2023-04-16T02:01:42.630Z,30.98
2023-04-16T02:04:10.872Z,31.56
2023-04-16T02:06:38.232Z,31.70
2023-04-16T02:09:05.186Z,31.56
2023-04-16T02:11:32.813Z,31.25
2023-04-16T02:14:00.135Z,31.57
2023-04-16T02:16:27.534Z,31.31
2023-04-16T02:19:04.839Z,31.81
2023-04-16T02:21:35.799Z,31.10
2023-04-16T02:24:03.366Z,31.97
2023-04-16T02:26:31.497Z,31.93
2023-04-16T02:29:04.332Z,32.11
2023-04-16T02:31:38.893Z,31.77
2023-04-16T02:34:07.006Z,31.93
2023-04-16T02:36:34.287Z,32.14
2023-04-16T02:39:01.669Z,32.09
2023-04-16T02:41:28.853Z,32.26
2023-04-16T02:43:56.446Z,31.99
2023-04-16T02:46:23.479Z,32.55
2023-04-16T02:48:50.762Z,32.31
2023-04-16T02:51:17.816Z,32.24
2023-04-16T02:53:46.240Z,32.19
2023-04-16T02:56:14.021Z,32.20
2023-04-16T02:58:41.347Z,32.06
2023-04-16T03:01:08.534Z,32.34
2023-04-16T03:03:35.705Z,32.92
2023-04-16T03:06:02.776Z,33.38
2023-04-16T03:08:29.748Z,33.24
2023-04-16T03:10:56.799Z,33.15
2023-04-16T03:13:23.772Z,33.10
2023-04-16T03:15:50.874Z,33.04
2023-04-16T03:18:18.109Z,33.23
2023-04-16T03:20:45.158Z,33.16
2023-04-16T03:23:12.284Z,33.34
2023-04-16T03:25:40.724Z,33.75
2023-04-16T03:28:09.247Z,33.22
2023-04-16T03:30:37.985Z,33.83
2023-04-16T03:33:06.757Z,33.78
2023-04-16T03:35:33.809Z,33.76
2023-04-16T03:38:01.545Z,33.61
2023-04-16T03:40:28.962Z,33.87
2023-04-16T03:42:56.392Z,33.53
2023-04-16T03:45:23.379Z,33.61
2023-04-16T03:47:52.950Z,33.51
2023-04-16T03:50:22.848Z,33.74
2023-04-16T03:52:49.797Z,32.88
2023-04-16T03:55:17.915Z,32.59
2023-04-16T03:57:46.988Z,32.65
2023-04-16T04:00:16.128Z,32.16
2023-04-16T04:03:01.899Z,31.61
2023-04-16T04:05:29.219Z,31.94
2023-04-16T04:07:56.590Z,31.35
2023-04-16T04:10:23.508Z,31.32
2023-04-16T04:12:50.577Z,31.05
2023-04-16T04:15:17.648Z,30.20
2023-04-16T04:17:44.573Z,30.24
2023-04-16T04:20:12.659Z,30.53
2023-04-16T04:22:43.768Z,30.41
2023-04-16T04:25:12.307Z,29.38
2023-04-16T04:27:39.349Z,29.14
2023-04-16T04:30:07.375Z,28.72
2023-04-16T04:32:34.468Z,28.58
2023-04-16T04:35:02.948Z,28.50
2023-04-16T04:37:31.742Z,26.98
2023-04-16T04:39:58.790Z,26.87
2023-04-16T04:42:25.719Z,26.41
2023-04-16T04:44:54.483Z,25.83
2023-04-16T04:47:21.968Z,24.03
2023-04-16T04:49:49.029Z,22.96
2023-04-16T04:52:16.002Z,22.53
2023-04-16T04:54:43.055Z,21.74
2023-04-16T04:57:10.093Z,19.88
2023-04-16T04:59:37.099Z,20.37
2023-04-16T05:02:04.070Z,19.96
2023-04-16T05:04:31.526Z,19.95
2023-04-16T05:06:58.620Z,19.37
2023-04-16T05:09:25.556Z,19.16
2023-04-16T05:11:52.923Z,19.14
2023-04-16T05:14:20.032Z,19.08
2023-04-16T05:16:47.384Z,18.46
2023-04-16T05:19:14.668Z,18.80
2023-04-16T05:21:41.593Z,18.31
2023-04-16T05:24:08.670Z,17.37
2023-04-16T05:26:35.662Z,17.22
2023-04-16T05:29:02.573Z,16.03
2023-04-16T05:31:29.524Z,15.88
2023-04-16T05:33:56.503Z,15.90
2023-04-16T05:36:23.466Z,15.57
2023-04-16T05:38:50.662Z,15.34
2023-04-16T05:41:17.611Z,14.37
2023-04-16T05:43:44.613Z,14.23
2023-04-16T05:46:11.567Z,14.09
2023-04-16T05:48:38.628Z,13.00
2023-04-16T05:51:05.839Z,13.36
2023-04-16T05:53:32.859Z,12.82
2023-04-16T05:55:59.785Z,12.52
2023-04-16T05:58:26.719Z,12.80
2023-04-16T06:00:53.786Z,12.10
2023-04-16T06:03:20.977Z,11.44
2023-04-16T06:05:48.067Z,11.51
2023-04-16T06:08:15.061Z,11.30
2023-04-16T06:10:42.028Z,11.00
2023-04-16T06:13:08.991Z,10.88
2023-04-16T06:15:35.999Z,10.64
2023-04-16T06:18:03.073Z,10.72
2023-04-16T06:20:30.804Z,11.15
2023-04-16T06:22:57.953Z,11.35
2023-04-16T06:25:24.887Z,11.80
2023-04-16T06:27:51.990Z,12.02
2023-04-16T06:30:19.969Z,12.51
2023-04-16T06:32:47.124Z,12.00
2023-04-16T06:35:14.200Z,11.98
2023-04-16T06:37:41.594Z,12.04
2023-04-16T06:40:08.991Z,12.08
2023-04-16T06:42:36.708Z,12.19
2023-04-16T06:45:03.983Z,12.28
2023-04-16T06:47:32.311Z,12.11
2023-04-16T06:49:59.217Z,12.12
2023-04-16T06:52:26.330Z,12.51
2023-04-16T06:54:53.404Z,12.56
2023-04-16T06:57:20.455Z,12.62
2023-04-16T06:59:47.404Z,12.43
2023-04-16T07:02:14.510Z,12.07
2023-04-16T07:04:41.647Z,12.56
2023-04-16T07:07:09.147Z,12.48
2023-04-16T07:09:36.094Z,12.61
2023-04-16T07:12:03.206Z,12.18
2023-04-16T07:14:30.130Z,12.40
2023-04-16T07:16:57.154Z,12.54
2023-04-16T07:19:24.137Z,12.55
2023-04-16T07:21:51.430Z,13.08
2023-04-16T07:24:18.630Z,13.24
2023-04-16T07:26:45.526Z,13.01
2023-04-16T07:29:12.604Z,13.49
2023-04-16T07:31:39.749Z,13.10
2023-04-16T07:34:06.754Z,12.61
2023-04-16T07:36:33.663Z,13.49
2023-04-16T07:39:01.149Z,13.21
2023-04-16T07:41:29.692Z,13.30
2023-04-16T07:43:56.726Z,13.00
2023-04-16T07:46:24.824Z,13.00
2023-04-16T07:48:53.507Z,12.97
2023-04-16T07:51:20.621Z,12.52
2023-04-16T07:53:47.758Z,12.27
2023-04-16T07:56:14.777Z,11.79
2023-04-16T07:58:41.759Z,11.52
2023-04-16T08:01:08.801Z,11.77
2023-04-16T08:03:35.934Z,11.76
2023-04-16T08:06:03.096Z,11.43
2023-04-16T08:08:30.269Z,11.55
2023-04-16T08:10:58.124Z,10.86
2023-04-16T08:13:25.328Z,10.49
2023-04-16T08:15:52.316Z,10.20
2023-04-16T08:18:19.989Z,9.78
2023-04-16T08:20:46.962Z,9.66
2023-04-16T08:23:13.920Z,9.49
2023-04-16T08:25:40.968Z,9.74
2023-04-16T08:28:08.059Z,9.10
2023-04-16T08:30:35.225Z,9.06
2023-04-16T08:33:02.606Z,8.31
2023-04-16T08:35:29.690Z,8.45
2023-04-16T08:37:58.026Z,8.29
2023-04-16T08:40:29.072Z,8.09
2023-04-16T08:42:59.351Z,8.26
2023-04-16T08:45:27.593Z,8.43
2023-04-16T08:47:54.754Z,7.94
2023-04-16T08:50:26.753Z,8.21
2023-04-16T08:52:58.858Z,8.09
2023-04-16T08:55:36.151Z,8.58
2023-04-16T08:58:08.649Z,8.72
2023-04-16T09:00:37.742Z,8.88
2023-04-16T09:03:10.430Z,8.69
2023-04-16T09:05:38.742Z,8.85
2023-04-16T09:08:07.010Z,8.91
2023-04-16T09:10:34.920Z,8.70
2023-04-16T09:13:01.949Z,8.82
2023-04-16T09:15:29.699Z,8.75
2023-04-16T09:17:57.823Z,8.69
2023-04-16T09:20:25.080Z,9.33
2023-04-16T09:22:52.293Z,9.58
2023-04-16T09:25:22.683Z,9.58
2023-04-16T09:27:51.108Z,9.00
2023-04-16T09:30:30.785Z,9.35
2023-04-16T09:33:23.505Z,9.61
2023-04-16T09:35:52.451Z,10.04
2023-04-16T09:38:20.876Z,10.23
2023-04-16T09:40:48.211Z,10.07
2023-04-16T09:43:19.077Z,10.53
2023-04-16T09:45:50.996Z,9.99
2023-04-16T09:48:31.087Z,9.88
2023-04-16T09:50:59.436Z,9.46
2023-04-16T09:53:31.448Z,9.19
2023-04-16T09:56:03.580Z,9.40
2023-04-16T09:58:30.949Z,9.74
2023-04-16T10:01:06.906Z,9.87
2023-04-16T10:03:34.987Z,9.58
2023-04-16T10:06:18.707Z,9.78
2023-04-16T10:08:53.317Z,9.55
2023-04-16T10:11:21.525Z,9.26
2023-04-16T10:13:48.909Z,8.87
2023-04-16T10:16:16.453Z,8.31
2023-04-16T10:18:45.936Z,8.40
2023-04-16T10:21:13.096Z,7.61
2023-04-16T10:23:40.757Z,7.25
2023-04-16T10:26:08.079Z,6.81
2023-04-16T10:28:36.342Z,6.80
2023-04-16T10:31:08.923Z,6.83
2023-04-16T10:33:40.333Z,6.59
2023-04-16T10:36:27.796Z,6.75
2023-04-16T10:38:58.619Z,7.11
2023-04-16T10:41:26.956Z,7.17
2023-04-16T10:44:04.694Z,7.21
2023-04-16T10:46:34.454Z,7.29
2023-04-16T10:49:12.263Z,6.57
2023-04-16T10:51:39.541Z,6.67
2023-04-16T10:54:10.096Z,7.29
2023-04-16T10:56:37.680Z,7.01
2023-04-16T10:59:06.367Z,6.84
2023-04-16T11:01:51.671Z,5.92
2023-04-16T11:04:22.341Z,5.71
2023-04-16T11:07:05.876Z,5.33
2023-04-16T11:09:54.136Z,6.07
2023-04-16T11:12:24.748Z,5.95
2023-04-16T11:14:59.180Z,5.83
2023-04-16T11:17:48.147Z,6.29
2023-04-16T11:20:25.336Z,6.73
2023-04-16T11:22:53.857Z,6.89
2023-04-16T11:25:26.001Z,6.71
2023-04-16T11:27:53.911Z,7.18
2023-04-16T11:30:38.024Z,7.05
2023-04-16T11:33:09.992Z,7.41
2023-04-16T11:35:39.642Z,7.47
2023-04-16T11:38:07.558Z,7.34
2023-04-16T11:40:36.053Z,7.27
2023-04-16T11:43:05.129Z,7.65
2023-04-16T11:45:32.171Z,8.37
2023-04-16T11:47:59.304Z,8.36
2023-04-16T11:50:28.392Z,8.42
2023-04-16T11:52:57.971Z,8.67
2023-04-16T11:55:25.036Z,8.68
2023-04-16T11:57:52.583Z,8.72
2023-04-16T12:00:24.320Z,8.95
2023-04-16T12:02:54.164Z,9.31
2023-04-16T12:05:39.024Z,9.51
2023-04-16T12:08:11.569Z,9.91
2023-04-16T12:10:56.105Z,10.04
2023-04-16T12:13:23.182Z,10.26
2023-04-16T12:15:55.057Z,10.31
2023-04-16T12:18:24.108Z,10.66
2023-04-16T12:20:51.594Z,10.90
2023-04-16T12:23:30.127Z,11.56
2023-04-16T12:26:02.683Z,11.21
2023-04-16T12:28:32.504Z,11.50
2023-04-16T12:31:00.632Z,11.71
2023-04-16T12:33:27.754Z,11.57
2023-04-16T12:35:55.061Z,11.60
2023-04-16T12:38:24.224Z,12.01
2023-04-16T12:40:52.150Z,12.51
2023-04-16T12:43:21.926Z,12.90
2023-04-16T12:45:49.575Z,12.42
2023-04-16T12:48:16.590Z,12.78
2023-04-16T12:50:44.571Z,13.35
2023-04-16T12:53:12.087Z,13.35
2023-04-16T12:55:39.105Z,13.49
2023-04-16T12:58:11.135Z,14.00
2023-04-16T13:00:40.510Z,13.79
2023-04-16T13:03:07.877Z,13.94
2023-04-16T13:05:35.258Z,13.71
2023-04-16T13:08:02.270Z,13.98
2023-04-16T13:10:30.492Z,14.24
2023-04-16T13:12:57.469Z,14.63
2023-04-16T13:15:24.681Z,14.62
2023-04-16T13:17:51.932Z,14.39
2023-04-16T13:20:19.269Z,14.42
2023-04-16T13:22:46.515Z,14.42
2023-04-16T13:25:13.464Z,14.47
2023-04-16T13:27:40.686Z,14.63
2023-04-16T13:30:08.318Z,14.39
2023-04-16T13:32:35.565Z,14.54
2023-04-16T13:35:02.767Z,14.83
2023-04-16T13:37:30.972Z,14.75
2023-04-16T13:39:58.034Z,15.50
2023-04-16T13:42:25.048Z,15.04
2023-04-16T13:44:54.284Z,14.89
2023-04-16T13:47:21.963Z,14.64
2023-04-16T13:49:49.282Z,14.74
2023-04-16T13:52:16.417Z,15.31
2023-04-16T13:54:43.494Z,15.30
2023-04-16T13:57:19.953Z,15.21
2023-04-16T13:59:47.026Z,14.79
2023-04-16T14:02:14.051Z,14.67
2023-04-16T14:04:43.659Z,15.03
2023-04-16T14:07:10.703Z,14.94
2023-04-16T14:09:37.828Z,14.90
2023-04-16T14:12:05.955Z,15.29
2023-04-16T14:14:32.917Z,15.20
2023-04-16T14:17:00.001Z,15.40
2023-04-16T14:19:27.062Z,15.45
2023-04-16T14:21:54.457Z,15.22
2023-04-16T14:24:21.717Z,15.12
2023-04-16T14:26:48.600Z,15.58
2023-04-16T14:29:15.676Z,15.19
2023-04-16T14:31:42.736Z,15.32
2023-04-16T14:34:09.788Z,15.22
2023-04-16T14:36:37.012Z,15.52
2023-04-16T14:39:04.822Z,15.13
2023-04-16T14:41:31.823Z,15.18
2023-04-16T14:43:59.597Z,15.62
2023-04-16T14:46:27.242Z,15.79
2023-04-16T14:48:54.306Z,15.73
2023-04-16T14:51:21.437Z,16.36
2023-04-16T14:53:48.406Z,16.05
2023-04-16T14:56:15.568Z,16.29
2023-04-16T14:58:43.444Z,16.33
2023-04-16T15:01:10.630Z,16.34
2023-04-16T15:03:37.923Z,15.88
2023-04-16T15:06:05.886Z,16.66
2023-04-16T15:08:34.849Z,16.60
2023-04-16T15:11:01.977Z,16.77
2023-04-16T15:13:33.883Z,16.30
2023-04-16T15:16:07.434Z,16.61
2023-04-16T15:18:36.059Z,16.33
2023-04-16T15:21:03.985Z,16.70
2023-04-16T15:23:31.133Z,16.18
2023-04-16T15:25:58.448Z,16.71
2023-04-16T15:28:25.432Z,17.09
2023-04-16T15:30:52.542Z,16.75
2023-04-16T15:33:22.436Z,16.40
2023-04-16T15:35:51.624Z,16.58
2023-04-16T15:38:21.109Z,16.76
2023-04-16T15:40:48.209Z,16.49
2023-04-16T15:43:16.061Z,17.28
2023-04-16T15:45:43.004Z,16.81
2023-04-16T15:48:10.092Z,17.00
2023-04-16T15:50:37.265Z,16.70
2023-04-16T15:53:04.258Z,17.26
2023-04-16T15:55:31.204Z,17.19
2023-04-16T15:57:58.249Z,16.96
2023-04-16T16:00:25.824Z,16.88
2023-04-16T16:02:52.845Z,16.65
2023-04-16T16:05:20.037Z,16.97
2023-04-16T16:07:47.468Z,16.96
2023-04-16T16:10:14.599Z,16.84
2023-04-16T16:12:41.779Z,16.80
2023-04-16T16:15:11.149Z,17.28
2023-04-16T16:17:39.433Z,17.56
2023-04-16T16:20:10.536Z,17.64
2023-04-16T16:22:38.386Z,16.84
2023-04-16T16:25:06.115Z,16.78
2023-04-16T16:27:32.981Z,17.44
2023-04-16T16:30:01.085Z,17.50
2023-04-16T16:32:28.274Z,17.42
2023-04-16T16:34:56.253Z,17.53
2023-04-16T16:37:23.306Z,17.57
2023-04-16T16:39:50.596Z,17.21
2023-04-16T16:42:19.026Z,17.01
2023-04-16T16:44:49.538Z,17.33
2023-04-16T16:47:16.613Z,17.11
2023-04-16T16:49:44.514Z,17.50
2023-04-16T16:52:11.592Z,17.33
2023-04-16T16:54:38.631Z,17.50
2023-04-16T16:57:05.847Z,18.08
2023-04-16T16:59:32.855Z,18.15
2023-04-16T17:01:59.972Z,17.89
2023-04-16T17:04:26.996Z,17.88
2023-04-16T17:06:54.074Z,18.12
2023-04-16T17:09:21.484Z,18.28
2023-04-16T17:11:48.347Z,18.21
2023-04-16T17:14:15.365Z,18.63
2023-04-16T17:16:42.436Z,18.56
2023-04-16T17:19:09.657Z,18.49
2023-04-16T17:21:36.882Z,19.09
2023-04-16T17:24:04.155Z,19.16
2023-04-16T17:26:31.960Z,18.60
2023-04-16T17:28:59.457Z,19.01
2023-04-16T17:31:29.539Z,18.99
2023-04-16T17:33:56.622Z,19.13
2023-04-16T17:36:23.699Z,19.60
2023-04-16T17:38:50.771Z,19.49
2023-04-16T17:41:17.969Z,19.26
2023-04-16T17:43:48.002Z,18.97
2023-04-16T17:46:15.270Z,19.26
2023-04-16T17:48:44.060Z,19.34
2023-04-16T17:51:12.037Z,19.32
2023-04-16T17:53:39.402Z,19.52
2023-04-16T17:56:07.081Z,19.08
2023-04-16T17:58:35.419Z,19.42
2023-04-16T18:01:03.401Z,19.45
2023-04-16T18:03:30.926Z,19.72
2023-04-16T18:05:58.218Z,19.66
2023-04-16T18:08:25.428Z,20.24
2023-04-16T18:10:52.583Z,19.69
2023-04-16T18:13:19.656Z,20.15
2023-04-16T18:15:47.337Z,19.88
2023-04-16T18:18:14.430Z,19.99
2023-04-16T18:20:41.808Z,19.79
2023-04-16T18:23:08.701Z,19.94
2023-04-16T18:25:35.883Z,19.75
2023-04-16T18:28:04.053Z,20.00
2023-04-16T18:30:31.352Z,19.81
2023-04-16T18:35:28.446Z,19.93
2023-04-16T18:37:55.515Z,19.87
2023-04-16T18:40:22.454Z,19.81
2023-04-16T18:42:49.604Z,19.80
2023-04-16T18:45:21.582Z,20.46
2023-04-16T18:47:50.412Z,20.16
2023-04-16T18:50:17.583Z,20.34
2023-04-16T18:52:44.567Z,20.48
2023-04-16T18:55:11.564Z,20.05
2023-04-16T18:57:38.623Z,19.79
2023-04-16T19:00:12.496Z,19.69
2023-04-16T19:02:40.724Z,20.07
2023-04-16T19:05:09.620Z,20.27
2023-04-16T19:07:37.645Z,20.35
2023-04-16T19:10:05.987Z,20.94
2023-04-16T19:12:33.088Z,20.56
2023-04-16T19:15:00.484Z,20.58
2023-04-16T19:17:27.574Z,20.47
2023-04-16T19:19:54.463Z,20.60
2023-04-16T19:22:21.503Z,20.63
2023-04-16T19:24:48.781Z,20.60
2023-04-16T19:27:15.853Z,20.75
2023-04-16T19:29:43.571Z,20.59
2023-04-16T19:32:11.466Z,20.79
2023-04-16T19:34:39.269Z,20.32
2023-04-16T19:37:06.329Z,20.51
2023-04-16T19:39:33.620Z,21.07
2023-04-16T19:42:01.861Z,20.61
2023-04-16T19:44:28.818Z,20.77
2023-04-16T19:46:55.763Z,20.75
2023-04-16T19:49:22.940Z,20.62
2023-04-16T19:51:49.864Z,20.40
2023-04-16T19:54:17.714Z,19.99
2023-04-16T19:56:44.665Z,20.55
2023-04-16T19:59:11.725Z,20.47
2023-04-16T20:01:38.840Z,20.20
2023-04-16T20:04:06.982Z,20.23
2023-04-16T20:06:34.089Z,19.97
2023-04-16T20:09:01.254Z,20.31
2023-04-16T20:11:28.254Z,20.45
2023-04-16T20:13:55.174Z,20.67
2023-04-16T20:16:24.098Z,20.34
2023-04-16T20:18:54.272Z,20.69
2023-04-16T20:21:21.776Z,20.62
2023-04-16T20:23:48.915Z,21.11
2023-04-16T20:26:18.469Z,20.71
2023-04-16T20:28:45.752Z,20.16
2023-04-16T20:31:13.092Z,20.42
2023-04-16T20:33:40.038Z,20.36
2023-04-16T20:36:07.453Z,20.39
2023-04-16T20:38:35.678Z,20.74
2023-04-16T20:41:14.583Z,20.50
2023-04-16T20:43:42.307Z,20.80
2023-04-16T20:46:10.918Z,20.73
2023-04-16T20:48:39.058Z,20.58
2023-04-16T20:51:07.898Z,20.94
2023-04-16T20:53:37.135Z,20.70
2023-04-16T20:56:04.885Z,21.24
2023-04-16T20:58:32.000Z,22.18
2023-04-16T21:00:59.216Z,21.66
2023-04-16T21:03:26.686Z,21.51
2023-04-16T21:05:57.696Z,21.51
2023-04-16T21:08:27.519Z,21.41
2023-04-16T21:10:54.417Z,21.51
2023-04-16T21:13:21.911Z,21.37
2023-04-16T21:15:49.045Z,21.47
2023-04-16T21:18:17.109Z,21.60
2023-04-16T21:20:44.574Z,21.52
2023-04-16T21:23:11.627Z,21.69
2023-04-16T21:25:38.712Z,21.65
2023-04-16T21:28:06.390Z,21.67
2023-04-16T21:30:33.509Z,21.83
2023-04-16T21:33:00.913Z,21.51
2023-04-16T21:35:27.962Z,21.70
2023-04-16T21:37:54.964Z,21.71
2023-04-16T21:40:21.944Z,21.62
2023-04-16T21:42:49.093Z,21.57
2023-04-16T21:45:16.070Z,21.66
2023-04-16T21:47:43.038Z,21.75
2023-04-16T21:50:10.504Z,21.85
2023-04-16T21:52:40.822Z,21.76
2023-04-16T21:55:09.582Z,22.21
2023-04-16T21:57:36.664Z,21.67
2023-04-16T22:00:09.226Z,21.67
2023-04-16T22:02:36.652Z,21.94
2023-04-16T22:05:03.791Z,22.21
2023-04-16T22:07:31.345Z,22.77
2023-04-16T22:09:58.238Z,22.00
2023-04-16T22:12:25.270Z,22.00
2023-04-16T22:15:02.374Z,22.30
2023-04-16T22:17:34.459Z,22.91
2023-04-16T22:20:13.191Z,22.67
2023-04-16T22:22:41.604Z,22.72
2023-04-16T22:25:09.516Z,22.20
2023-04-16T22:27:36.832Z,22.45
2023-04-16T22:30:04.217Z,22.70
2023-04-16T22:32:34.807Z,22.05
2023-04-16T22:35:02.010Z,22.12
2023-04-16T22:37:30.833Z,22.63
2023-04-16T22:39:58.122Z,21.92
2023-04-16T22:42:25.089Z,22.55
2023-04-16T22:44:52.119Z,22.58
2023-04-16T22:47:19.030Z,22.59
2023-04-16T22:49:47.462Z,22.72
2023-04-16T22:52:14.433Z,23.42
2023-04-16T22:54:41.342Z,22.88
2023-04-16T22:57:08.359Z,22.93
2023-04-16T22:59:35.526Z,23.25
2023-04-16T23:02:02.629Z,22.95
2023-04-16T23:04:29.848Z,23.28
2023-04-16T23:06:56.995Z,23.17
2023-04-16T23:09:24.010Z,23.36
2023-04-16T23:11:51.037Z,23.03
2023-04-16T23:14:18.101Z,23.72
2023-04-16T23:16:45.115Z,23.54
2023-04-16T23:19:15.064Z,23.50
2023-04-16T23:21:42.193Z,24.08
2023-04-16T23:24:09.246Z,23.09
2023-04-16T23:26:36.177Z,22.99
2023-04-16T23:29:03.259Z,23.54
2023-04-16T23:31:30.450Z,23.93
2023-04-16T23:33:57.434Z,23.92
2023-04-16T23:36:24.344Z,23.56
2023-04-16T23:38:51.263Z,23.54
2023-04-16T23:41:18.227Z,23.95
2023-04-16T23:43:45.140Z,23.88
2023-04-16T23:46:12.160Z,23.83
2023-04-16T23:48:39.095Z,23.63
2023-04-16T23:51:06.087Z,23.21
2023-04-16T23:53:33.223Z,23.96
2023-04-16T23:56:00.145Z,23.89
2023-04-16T23:58:27.220Z,24.04
